KAUG/AUG METAR and TAF weather

Enter ICAO airport designator
Station Type Date Time Source
KAUG METAR 2021/04/18 02:53 UTC NOAA

KAUG 180253Z AUTO 35008KT 10SM BKN035 BKN042 OVC075 04/03 A2975 RMK AO2 RAB00E26 SLP076 P0000 60000 T00440028 58002


Station Type Date Time Source
KAUG Decoded METAR 2021/04/18 02:53 UTC NOAA

AUGUSTA STATE AIRPORT, ME, United States (KAUG) 44-19N 069-48W 109M
Apr 17, 2021 - 10:53 PM EDT / 2021.04.18 0253 UTC
Wind: from the N (350 degrees) at 9 MPH (8 KT):0
Visibility: 10 mile(s):0
Sky conditions: overcast
Precipitation last hour: A trace
Temperature: 39.9 F (4.4 C)
Dew Point: 37.0 F (2.8 C)
Relative Humidity: 89%
Pressure (altimeter): 29.75 in. Hg (1007 hPa)
Pressure tendency: 0.01 inches (0.2 hPa) lower than three hours ago
ob: KAUG 180253Z AUTO 35008KT 10SM BKN035 BKN042 OVC075 04/03 A2975 RMK AO2 RAB00E26 SLP076 P0000 60000 T00440028 58002
cycle: 3

Station Type Date Time Source
KAUG TAF 2021/04/17 19:34 UTC NOAA

TAF
AMD KAUG 171832Z 1719/1818 02012G21KT P6SM -SHRA OVC025
FM172100 35009KT P6SM OVC012
FM181200 32006KT P6SM BKN025

Example: see airport list